createdAt,value
2022-10-17T00:00:31.032Z,72.10
2022-10-17T00:02:57.893Z,71.58
2022-10-17T00:05:25.093Z,71.49
2022-10-17T00:07:52.698Z,67.62
2022-10-17T00:10:20.079Z,74.61
2022-10-17T00:12:46.820Z,72.05
2022-10-17T00:15:19.406Z,71.63
2022-10-17T00:17:45.857Z,71.97
2022-10-17T00:20:13.104Z,68.90
2022-10-17T00:22:39.924Z,73.60
2022-10-17T00:25:07.031Z,68.88
2022-10-17T00:27:38.283Z,81.73
2022-10-17T00:30:06.587Z,74.27
2022-10-17T00:32:33.196Z,68.97
2022-10-17T00:34:59.680Z,75.22
2022-10-17T00:37:26.139Z,72.42
2022-10-17T00:39:53.896Z,71.83
2022-10-17T00:42:20.438Z,72.12
2022-10-17T00:44:47.539Z,74.74
2022-10-17T00:47:19.508Z,65.28
2022-10-17T00:49:46.243Z,82.72
2022-10-17T00:52:20.830Z,75.04
2022-10-17T00:54:51.621Z,73.27
2022-10-17T00:57:18.206Z,72.59
2022-10-17T00:59:49.741Z,77.41
2022-10-17T01:02:19.620Z,74.21
2022-10-17T01:04:48.991Z,74.86
2022-10-17T01:07:15.453Z,73.11
2022-10-17T01:09:44.380Z,74.39
2022-10-17T01:12:23.345Z,81.25
2022-10-17T01:15:26.996Z,74.74
2022-10-17T01:18:14.658Z,76.06
2022-10-17T01:21:15.134Z,71.95
2022-10-17T01:24:21.738Z,75.15
2022-10-17T01:27:08.611Z,80.50
2022-10-17T01:30:10.387Z,74.09
2022-10-17T01:32:54.146Z,72.20
2022-10-17T01:35:50.792Z,78.41
2022-10-17T01:38:53.132Z,73.63
2022-10-17T01:41:32.191Z,72.63
2022-10-17T01:44:18.119Z,75.20
2022-10-17T01:46:50.237Z,69.04
2022-10-17T01:49:22.637Z,72.73
2022-10-17T01:51:54.380Z,64.13
2022-10-17T01:54:41.551Z,73.42
2022-10-17T01:57:14.024Z,72.57
2022-10-17T01:59:44.304Z,74.00
2022-10-17T02:02:13.737Z,70.28
2022-10-17T02:04:41.268Z,77.19
2022-10-17T02:07:13.305Z,74.34
2022-10-17T02:09:40.275Z,72.54
2022-10-17T02:12:32.819Z,73.31
2022-10-17T02:15:08.245Z,71.86
2022-10-17T02:17:48.422Z,72.35
2022-10-17T02:20:43.956Z,61.81
2022-10-17T02:23:25.409Z,73.81
2022-10-17T02:26:04.918Z,72.51
2022-10-17T02:29:00.670Z,71.63
2022-10-17T02:31:35.119Z,62.10
2022-10-17T02:34:07.904Z,75.08
2022-10-17T02:36:43.783Z,74.68
2022-10-17T02:39:12.076Z,73.16
2022-10-17T02:41:40.342Z,71.35
2022-10-17T02:44:08.421Z,72.16
2022-10-17T02:46:37.337Z,71.39
2022-10-17T02:49:22.506Z,71.77
2022-10-17T02:52:14.944Z,71.29
2022-10-17T02:54:57.291Z,63.51
2022-10-17T02:57:44.412Z,71.98
2022-10-17T03:00:13.598Z,72.55
2022-10-17T03:02:43.191Z,76.08
2022-10-17T03:05:10.735Z,65.18
2022-10-17T03:07:37.163Z,73.83
2022-10-17T03:10:04.175Z,72.22
2022-10-17T03:12:30.959Z,73.64
2022-10-17T03:14:57.671Z,72.87
2022-10-17T03:17:24.083Z,70.21
2022-10-17T03:19:50.529Z,73.98
2022-10-17T03:22:16.928Z,72.55
2022-10-17T03:24:43.320Z,72.21
2022-10-17T03:27:09.767Z,71.98
2022-10-17T03:29:36.180Z,71.15
2022-10-17T03:32:02.605Z,74.87
2022-10-17T03:34:29.172Z,67.91
2022-10-17T03:36:55.553Z,76.74
2022-10-17T03:39:22.021Z,73.31
2022-10-17T03:41:48.472Z,72.80
2022-10-17T03:44:15.003Z,72.33
2022-10-17T03:46:42.045Z,71.91
2022-10-17T03:49:11.607Z,70.09
2022-10-17T03:51:38.098Z,72.87
2022-10-17T03:54:04.731Z,71.88
2022-10-17T03:56:31.132Z,71.50
2022-10-17T03:58:57.614Z,74.05
2022-10-17T04:01:24.348Z,72.59
2022-10-17T04:03:54.022Z,72.21
2022-10-17T04:06:21.101Z,71.75
2022-10-17T04:08:48.266Z,71.54
2022-10-17T04:11:19.957Z,72.02
2022-10-17T04:13:46.437Z,72.26
2022-10-17T04:16:17.173Z,71.70
2022-10-17T04:18:44.486Z,64.23
2022-10-17T04:21:12.233Z,72.90
2022-10-17T04:23:39.042Z,71.53
2022-10-17T04:26:06.688Z,71.58
2022-10-17T04:28:33.759Z,71.45
2022-10-17T04:31:03.056Z,72.01
2022-10-17T04:33:31.150Z,71.82
2022-10-17T04:36:02.136Z,62.92
2022-10-17T04:38:29.420Z,73.57
2022-10-17T04:41:04.853Z,72.31
2022-10-17T04:43:32.643Z,72.71
2022-10-17T04:46:00.324Z,66.92
2022-10-17T04:48:28.137Z,76.79
2022-10-17T04:51:08.781Z,73.09
2022-10-17T04:53:36.869Z,70.72
2022-10-17T04:56:09.811Z,73.35
2022-10-17T04:58:36.835Z,72.14
2022-10-17T05:01:12.685Z,72.24
2022-10-17T05:03:39.893Z,75.24
2022-10-17T05:06:14.766Z,67.90
2022-10-17T05:08:41.926Z,77.78
2022-10-17T05:11:23.610Z,73.02
2022-10-17T05:13:58.359Z,73.54
2022-10-17T05:16:25.784Z,75.02
2022-10-17T05:18:54.894Z,71.45
2022-10-17T05:21:23.716Z,76.69
2022-10-17T05:23:50.856Z,73.11
2022-10-17T05:26:17.853Z,71.68
2022-10-17T05:28:44.404Z,73.90
2022-10-17T05:31:11.573Z,72.76
2022-10-17T05:33:39.115Z,72.73
2022-10-17T05:36:06.512Z,72.26
2022-10-17T05:38:33.588Z,72.37
2022-10-17T05:41:01.815Z,71.81
2022-10-17T05:43:28.659Z,72.94
2022-10-17T05:45:55.756Z,72.35
2022-10-17T05:48:23.896Z,72.52
2022-10-17T05:50:50.274Z,72.72
2022-10-17T05:53:17.085Z,62.94
2022-10-17T05:55:43.475Z,66.25
2022-10-17T05:58:17.601Z,74.73
2022-10-17T06:00:48.773Z,68.16
2022-10-17T06:03:15.253Z,74.86
2022-10-17T06:05:41.717Z,72.76
2022-10-17T06:08:08.154Z,72.46
2022-10-17T06:10:34.637Z,72.24
2022-10-17T06:13:01.093Z,71.89
2022-10-17T06:15:27.527Z,72.63
2022-10-17T06:17:53.974Z,72.35
2022-10-17T06:20:20.343Z,75.07
2022-10-17T06:22:46.770Z,73.02
2022-10-17T06:25:13.340Z,72.15
2022-10-17T06:27:39.855Z,71.73
2022-10-17T06:30:06.836Z,72.47
2022-10-17T06:32:33.351Z,71.88
2022-10-17T06:34:59.766Z,72.26
2022-10-17T06:37:26.474Z,72.41
2022-10-17T06:39:53.628Z,72.57
2022-10-17T06:42:20.071Z,72.01
2022-10-17T06:44:46.439Z,73.09
2022-10-17T06:47:15.412Z,71.93
2022-10-17T06:49:44.389Z,66.92
2022-10-17T06:52:10.854Z,71.97
2022-10-17T06:54:37.260Z,71.97
2022-10-17T06:57:03.728Z,72.42
2022-10-17T06:59:30.087Z,72.35
2022-10-17T07:01:56.535Z,72.76
2022-10-17T07:04:22.918Z,72.63
2022-10-17T07:06:49.349Z,72.01
2022-10-17T07:09:16.985Z,72.15
2022-10-17T07:11:43.579Z,72.62
2022-10-17T07:14:10.080Z,71.66
2022-10-17T07:16:37.052Z,72.30
2022-10-17T07:19:03.715Z,71.62
2022-10-17T07:21:32.095Z,72.19
2022-10-17T07:24:00.391Z,71.58
2022-10-17T07:26:26.819Z,77.81
2022-10-17T07:28:55.542Z,73.07
2022-10-17T07:31:22.902Z,75.37
2022-10-17T07:33:49.869Z,72.09
2022-10-17T07:36:17.589Z,71.50
2022-10-17T07:38:44.141Z,68.52
2022-10-17T07:41:11.983Z,72.93
2022-10-17T07:43:38.822Z,70.85
2022-10-17T07:46:06.339Z,69.88
2022-10-17T07:48:32.847Z,70.32
2022-10-17T07:51:02.568Z,71.00
2022-10-17T07:53:29.072Z,71.36
2022-10-17T07:55:55.502Z,74.10
2022-10-17T07:58:21.937Z,65.00
2022-10-17T08:00:49.045Z,61.98
2022-10-17T08:03:15.624Z,62.57
2022-10-17T08:05:42.190Z,64.56
2022-10-17T08:08:08.760Z,67.41
2022-10-17T08:10:35.183Z,64.40
2022-10-17T08:13:02.506Z,63.86
2022-10-17T08:15:31.742Z,59.80
2022-10-17T08:17:59.433Z,63.08
2022-10-17T08:20:26.345Z,56.60
2022-10-17T08:22:56.430Z,60.67
2022-10-17T08:25:23.296Z,60.37
2022-10-17T08:27:50.019Z,59.93
2022-10-17T08:30:17.096Z,60.28
2022-10-17T08:32:44.005Z,57.36
2022-10-17T08:35:10.888Z,54.38
2022-10-17T08:37:37.431Z,56.25
2022-10-17T08:40:04.496Z,63.01
2022-10-17T08:42:55.379Z,61.72
2022-10-17T08:45:24.756Z,61.70
2022-10-17T08:48:13.610Z,60.85
2022-10-17T08:50:53.920Z,60.96
2022-10-17T08:53:35.792Z,55.54
2022-10-17T08:56:19.536Z,51.45
2022-10-17T08:58:51.763Z,50.86
2022-10-17T09:01:24.131Z,47.61
2022-10-17T09:04:09.871Z,47.35
2022-10-17T09:06:42.959Z,46.43
2022-10-17T09:09:46.826Z,44.56
2022-10-17T09:12:28.323Z,43.50
2022-10-17T09:15:08.373Z,43.68
2022-10-17T09:17:58.087Z,42.51
2022-10-17T09:20:31.903Z,42.15
2022-10-17T09:23:06.884Z,39.85
2022-10-17T09:25:42.469Z,45.52
2022-10-17T09:28:35.273Z,51.78
2022-10-17T09:31:11.770Z,59.75
2022-10-17T09:33:54.446Z,58.94
2022-10-17T09:36:25.945Z,60.84
2022-10-17T09:38:55.513Z,59.71
2022-10-17T09:41:49.304Z,56.43
2022-10-17T09:44:44.073Z,55.70
2022-10-17T09:47:13.518Z,60.42
2022-10-17T09:49:45.518Z,53.59
2022-10-17T09:52:17.261Z,52.27
2022-10-17T09:54:50.396Z,55.55
2022-10-17T09:57:18.904Z,53.19
2022-10-17T10:00:07.426Z,44.21
2022-10-17T10:02:40.649Z,43.19
2022-10-17T10:05:17.492Z,41.80
2022-10-17T10:08:01.600Z,49.42
2022-10-17T10:10:29.557Z,50.27
2022-10-17T10:13:14.167Z,55.29
2022-10-17T10:15:43.246Z,54.60
2022-10-17T10:18:25.057Z,51.98
2022-10-17T10:21:08.976Z,50.88
2022-10-17T10:23:40.087Z,55.31
2022-10-17T10:26:33.212Z,49.30
2022-10-17T10:29:20.961Z,51.58
2022-10-17T10:31:48.077Z,48.92
2022-10-17T10:34:20.395Z,50.27
2022-10-17T10:36:53.569Z,47.09
2022-10-17T10:39:31.991Z,45.30
2022-10-17T10:42:00.074Z,43.16
2022-10-17T10:44:30.652Z,43.63
2022-10-17T10:47:17.378Z,39.63
2022-10-17T10:49:44.080Z,45.75
2022-10-17T10:52:19.642Z,48.05
2022-10-17T10:54:55.457Z,45.99
2022-10-17T10:57:25.487Z,44.22
2022-10-17T11:00:00.020Z,53.41
2022-10-17T11:02:42.776Z,60.96
2022-10-17T11:05:24.400Z,52.91
2022-10-17T11:08:03.734Z,50.82
2022-10-17T11:10:30.094Z,45.18
2022-10-17T11:13:04.600Z,57.29
2022-10-17T11:15:57.658Z,44.98
2022-10-17T11:18:42.181Z,44.84
2022-10-17T11:21:36.210Z,54.73
2022-10-17T11:24:25.290Z,48.06
2022-10-17T11:27:04.094Z,44.74
2022-10-17T11:29:36.726Z,44.73
2022-10-17T11:32:15.508Z,45.42
2022-10-17T11:34:49.014Z,45.92
2022-10-17T11:37:23.161Z,46.78
2022-10-17T11:40:02.082Z,47.41
2022-10-17T11:42:38.661Z,52.63
2022-10-17T11:45:14.739Z,50.09
2022-10-17T11:47:47.862Z,48.24
2022-10-17T11:53:16.072Z,48.63
2022-10-17T11:55:44.465Z,48.73
2022-10-17T12:01:22.776Z,56.20
2022-10-17T12:04:13.511Z,50.60
2022-10-17T12:06:54.932Z,48.54
2022-10-17T12:09:40.798Z,57.46
2022-10-17T12:12:07.682Z,54.09
2022-10-17T12:14:42.615Z,54.32
2022-10-17T12:17:28.067Z,48.95
2022-10-17T12:20:17.286Z,51.30
2022-10-17T12:22:48.379Z,48.05
2022-10-17T12:25:21.416Z,48.42
2022-10-17T12:27:50.123Z,48.85
2022-10-17T12:30:23.260Z,48.78
2022-10-17T12:33:09.150Z,49.28
2022-10-17T12:35:37.796Z,49.73
2022-10-17T12:38:22.249Z,54.55
2022-10-17T12:40:51.489Z,52.26
2022-10-17T12:43:17.815Z,48.75
2022-10-17T12:45:55.057Z,50.37
2022-10-17T12:48:33.965Z,48.09
2022-10-17T12:53:57.279Z,52.17
2022-10-17T12:56:50.096Z,49.01
2022-10-17T12:59:27.743Z,49.50
2022-10-17T13:01:59.334Z,49.68
2022-10-17T13:04:27.365Z,49.25
2022-10-17T13:06:56.624Z,48.62
2022-10-17T13:09:29.501Z,49.04
2022-10-17T13:11:59.672Z,48.81
2022-10-17T13:14:27.403Z,49.62
2022-10-17T13:16:55.741Z,48.89
2022-10-17T13:19:29.241Z,48.57
2022-10-17T13:22:06.028Z,50.68
2022-10-17T13:24:40.686Z,50.48
2022-10-17T13:27:22.883Z,54.06
2022-10-17T13:29:49.444Z,60.20
2022-10-17T13:32:16.190Z,62.71
2022-10-17T13:34:42.945Z,54.63
2022-10-17T13:37:14.438Z,59.06
2022-10-17T13:39:55.324Z,60.42
2022-10-17T13:42:30.045Z,62.31
2022-10-17T13:44:58.644Z,60.24
2022-10-17T13:47:32.287Z,64.03
2022-10-17T13:49:59.455Z,65.50
2022-10-17T13:52:28.869Z,65.01
2022-10-17T13:55:08.519Z,65.14
2022-10-17T13:57:35.045Z,58.41
2022-10-17T14:00:11.753Z,64.44
2022-10-17T14:02:41.019Z,65.18
2022-10-17T14:05:17.743Z,66.10
2022-10-17T14:10:42.408Z,66.36
2022-10-17T14:13:20.617Z,66.50
2022-10-17T14:15:47.260Z,66.84
2022-10-17T14:18:19.656Z,67.75
2022-10-17T14:21:31.774Z,67.70
2022-10-17T14:23:41.457Z,67.72
2022-10-17T14:26:15.699Z,68.65
2022-10-17T14:28:45.367Z,68.83
2022-10-17T14:31:17.910Z,69.04
2022-10-17T14:33:50.518Z,69.22
2022-10-17T14:36:18.235Z,69.50
2022-10-17T14:38:47.658Z,69.81
2022-10-17T14:41:42.289Z,69.59
2022-10-17T14:44:22.361Z,69.64
2022-10-17T14:46:53.429Z,70.04
2022-10-17T14:49:26.128Z,70.24
2022-10-17T14:52:17.723Z,70.36
2022-10-17T14:54:48.466Z,70.57
2022-10-17T14:57:18.721Z,70.56
2022-10-17T14:59:54.194Z,70.65
2022-10-17T15:02:22.064Z,70.81
2022-10-17T15:04:48.491Z,70.85
2022-10-17T15:07:16.556Z,70.72
2022-10-17T15:09:44.236Z,70.63
2022-10-17T15:12:20.031Z,70.74
2022-10-17T15:14:48.416Z,70.94
2022-10-17T15:17:20.518Z,71.02
2022-10-17T15:19:47.851Z,71.15
2022-10-17T15:22:16.061Z,71.26
2022-10-17T15:24:42.559Z,71.21
2022-10-17T15:27:23.556Z,71.54
2022-10-17T15:29:51.481Z,71.68
2022-10-17T15:32:17.938Z,71.62
2022-10-17T15:34:44.619Z,71.26
2022-10-17T15:37:17.867Z,71.90
2022-10-17T15:39:45.826Z,72.09
2022-10-17T15:42:12.638Z,67.20
2022-10-17T15:44:40.383Z,71.33
2022-10-17T15:47:11.697Z,71.75
2022-10-17T15:49:38.101Z,71.84
2022-10-17T15:52:05.679Z,71.82
2022-10-17T15:54:32.099Z,71.76
2022-10-17T15:56:58.679Z,71.78
2022-10-17T15:59:30.383Z,71.65
2022-10-17T16:01:56.837Z,71.28
2022-10-17T16:04:26.745Z,71.05
2022-10-17T16:06:53.420Z,71.23
2022-10-17T16:09:19.886Z,70.94
2022-10-17T16:11:46.453Z,70.95
2022-10-17T16:14:15.970Z,70.74
2022-10-17T16:16:42.962Z,70.46
2022-10-17T16:19:09.444Z,70.40
2022-10-17T16:21:38.849Z,71.19
2022-10-17T16:24:05.605Z,70.74
2022-10-17T16:26:32.641Z,71.07
2022-10-17T16:29:02.764Z,71.01
2022-10-17T16:31:33.126Z,71.25
2022-10-17T16:34:00.916Z,70.53
2022-10-17T16:36:27.376Z,71.02
2022-10-17T16:38:54.209Z,70.96
2022-10-17T16:41:26.708Z,70.91
2022-10-17T16:43:55.189Z,69.81
2022-10-17T16:46:22.335Z,69.45
2022-10-17T16:48:48.955Z,70.87
2022-10-17T16:51:18.056Z,70.86
2022-10-17T16:53:50.195Z,70.08
2022-10-17T16:56:20.083Z,69.73
2022-10-17T16:58:47.212Z,69.38
2022-10-17T17:01:16.974Z,69.79
2022-10-17T17:03:44.944Z,69.96
2022-10-17T17:06:24.380Z,70.04
2022-10-17T17:08:51.080Z,69.69
2022-10-17T17:11:19.117Z,69.74
2022-10-17T17:13:45.631Z,69.73
2022-10-17T17:16:14.741Z,69.74
2022-10-17T17:18:42.402Z,70.20
2022-10-17T17:21:10.405Z,70.19
2022-10-17T17:23:40.703Z,64.34
2022-10-17T17:34:55.191Z,70.21
2022-10-17T17:37:21.642Z,69.94
2022-10-17T17:39:48.013Z,69.92
2022-10-17T17:42:14.448Z,69.94
2022-10-17T17:44:40.833Z,70.40
2022-10-17T17:47:07.808Z,70.10
2022-10-17T17:49:34.257Z,63.65
2022-10-17T17:52:00.774Z,68.04
2022-10-17T17:54:27.212Z,71.15
2022-10-17T17:56:53.640Z,70.71
2022-10-17T17:59:20.045Z,70.43
2022-10-17T18:01:46.695Z,70.46
2022-10-17T18:04:13.358Z,70.41
2022-10-17T18:06:40.127Z,70.23
2022-10-17T18:09:08.159Z,69.69
2022-10-17T18:11:35.553Z,65.18
2022-10-17T18:14:05.317Z,63.36
2022-10-17T18:16:34.253Z,74.38
2022-10-17T18:19:06.700Z,70.59
2022-10-17T18:21:33.777Z,69.81
2022-10-17T18:24:00.244Z,69.54
2022-10-17T18:26:27.531Z,69.41
2022-10-17T18:28:54.080Z,69.48
2022-10-17T18:31:25.037Z,69.83
2022-10-17T18:33:53.005Z,69.84
2022-10-17T18:36:20.267Z,69.73
2022-10-17T18:38:47.191Z,69.95
2022-10-17T18:41:17.198Z,69.79
2022-10-17T18:43:45.355Z,69.62
2022-10-17T18:46:15.059Z,70.22
2022-10-17T18:48:44.514Z,69.85
2022-10-17T18:51:12.262Z,69.74
2022-10-17T18:53:41.067Z,69.78
2022-10-17T18:56:08.029Z,69.81
2022-10-17T18:58:34.840Z,67.22
2022-10-17T19:01:06.319Z,72.11
2022-10-17T19:03:33.147Z,75.04
2022-10-17T19:06:07.527Z,72.31
2022-10-17T19:08:34.832Z,70.69
2022-10-17T19:11:15.309Z,70.41
2022-10-17T19:16:24.589Z,70.45
2022-10-17T19:18:53.691Z,70.40
2022-10-17T19:21:22.028Z,70.18
2022-10-17T19:23:51.300Z,69.92
2022-10-17T19:26:18.531Z,69.64
2022-10-17T19:28:45.196Z,69.92
2022-10-17T19:31:15.408Z,69.79
2022-10-17T19:33:44.191Z,70.05
2022-10-17T19:36:11.821Z,69.88
2022-10-17T19:38:38.786Z,70.40
2022-10-17T19:41:07.761Z,70.03
2022-10-17T19:43:40.007Z,69.69
2022-10-17T19:46:09.428Z,69.96
2022-10-17T19:48:36.820Z,70.23
2022-10-17T19:51:04.853Z,70.27
2022-10-17T19:53:31.326Z,70.19
2022-10-17T19:55:59.000Z,70.46
2022-10-17T19:58:26.710Z,70.51
2022-10-17T20:00:56.782Z,68.52
2022-10-17T20:03:24.753Z,70.22
2022-10-17T20:05:51.627Z,70.42
2022-10-17T20:08:18.381Z,70.33
2022-10-17T20:10:46.171Z,69.96
2022-10-17T20:13:13.392Z,69.79
2022-10-17T20:15:40.444Z,69.78
2022-10-17T20:18:07.973Z,70.09
2022-10-17T20:20:35.560Z,69.66
2022-10-17T20:23:02.953Z,69.86
2022-10-17T20:25:29.559Z,69.81
2022-10-17T20:27:55.980Z,67.61
2022-10-17T20:30:22.632Z,71.90
2022-10-17T20:32:49.172Z,62.59
2022-10-17T20:35:15.581Z,73.85
2022-10-17T20:37:42.815Z,70.91
2022-10-17T20:40:34.010Z,70.35
2022-10-17T20:42:56.361Z,70.27
2022-10-17T20:45:37.372Z,70.39
2022-10-17T20:48:17.684Z,71.47
2022-10-17T20:50:44.411Z,70.24
2022-10-17T20:53:35.367Z,70.17
2022-10-17T20:56:03.551Z,70.45
2022-10-17T20:58:30.069Z,70.18
2022-10-17T21:00:56.523Z,70.45
2022-10-17T21:03:23.443Z,70.23
2022-10-17T21:05:49.873Z,69.71
2022-10-17T21:08:16.309Z,63.17
2022-10-17T21:10:42.784Z,68.84
2022-10-17T21:13:09.148Z,70.93
2022-10-17T21:15:35.581Z,74.72
2022-10-17T21:18:02.252Z,71.43
2022-10-17T21:20:28.720Z,70.63
2022-10-17T21:22:55.367Z,70.46
2022-10-17T21:25:21.800Z,70.53
2022-10-17T21:27:48.244Z,70.55
2022-10-17T21:30:14.738Z,70.03
2022-10-17T21:32:51.526Z,70.45
2022-10-17T21:35:18.521Z,70.25
2022-10-17T21:37:44.970Z,69.98
2022-10-17T21:40:12.191Z,69.96
2022-10-17T21:42:38.567Z,69.98
2022-10-17T21:45:10.756Z,61.78
2022-10-17T21:47:55.026Z,64.62
2022-10-17T21:50:29.212Z,74.36
2022-10-17T21:52:55.575Z,70.90
2022-10-17T21:55:22.025Z,69.48
2022-10-17T21:57:49.591Z,70.29
2022-10-17T22:00:16.117Z,70.63
2022-10-17T22:02:42.519Z,70.27
2022-10-17T22:05:09.474Z,69.90
2022-10-17T22:07:35.877Z,70.01
2022-10-17T22:10:02.672Z,69.84
2022-10-17T22:12:29.456Z,69.79
2022-10-17T22:14:56.144Z,69.91
2022-10-17T22:17:22.589Z,70.04
2022-10-17T22:19:49.003Z,70.52
2022-10-17T22:22:15.383Z,70.21
2022-10-17T22:24:41.809Z,70.24
2022-10-17T22:27:10.286Z,70.10
2022-10-17T22:29:36.696Z,70.36
2022-10-17T22:32:03.205Z,70.18
2022-10-17T22:34:29.650Z,70.19
2022-10-17T22:36:56.051Z,70.70
2022-10-17T22:39:22.452Z,71.00
2022-10-17T22:41:48.857Z,70.27
2022-10-17T22:44:15.243Z,70.25
2022-10-17T22:46:41.727Z,70.34
2022-10-17T22:49:08.464Z,70.41
2022-10-17T22:51:34.910Z,69.88
2022-10-17T22:54:01.560Z,70.00
2022-10-17T22:56:28.039Z,70.04
2022-10-17T22:58:54.481Z,60.70
2022-10-17T23:01:23.344Z,71.80
2022-10-17T23:03:51.180Z,70.40
2022-10-17T23:06:18.045Z,69.99
2022-10-17T23:08:45.029Z,72.46
2022-10-17T23:11:11.690Z,71.07
2022-10-17T23:13:39.709Z,70.91
2022-10-17T23:16:06.464Z,70.51
2022-10-17T23:18:33.450Z,70.48
2022-10-17T23:20:59.910Z,70.32
2022-10-17T23:23:26.329Z,70.58
2022-10-17T23:25:52.892Z,70.19
2022-10-17T23:28:19.343Z,70.81
2022-10-17T23:30:46.128Z,70.37
2022-10-17T23:33:13.471Z,70.12
2022-10-17T23:35:40.433Z,70.36
2022-10-17T23:38:07.029Z,70.40
2022-10-17T23:40:34.811Z,69.84
2022-10-17T23:43:01.358Z,69.68
2022-10-17T23:45:27.888Z,70.08
2022-10-17T23:47:54.384Z,70.36
2022-10-17T23:50:20.765Z,63.93
2022-10-17T23:52:47.263Z,70.46
2022-10-17T23:55:13.696Z,70.07
2022-10-17T23:57:40.140Z,70.57
